Portada
METAR-TAF:

METAR-TAF

Aeropuertos :

Mendoza, Argentina

Aeropuerto Internacional Gobernador Francisco Gabrielli

latitud: 32-50S, longitud: 068-47W, altitud: 705 m

Observación

El informe se hizo hace 54 minutos, a las 17:00 UTC
Viento 4 kt del noreste
Temperatura 22°C
Humedad 38%
Presión 1018 hPa
Visibilidad 10 km o más
sin nubes por debajo de 1500 m y sin presencia de cumulonimbus.

METAR: SAME 281700Z 05004KT CAVOK 22/07 Q1018

Hora: 14:54 (17:54 UTC)

Pronóstico

El informe se hizo hace 54 minutos, a las 17:00 UTC
Pronóstico válido del 28 a las 18 UTC al 29 a las 18 UTC
Viento 10 kt del sureste
Visibilidad 10 km o más
sin nubes por debajo de 1500 m y sin presencia de cumulonimbus.

TAF: SAME 281700Z 2818/2918 14010KT CAVOK TX23/2820Z TN11/2910Z

Observaciones y pronósticos meteorológicos de más de 4000 aeropuertos (mensajes METAR y TAF).

Los puntos amarillos y rojos representan las estaciones disponibles.

Ponga el ratón en el punto deseado para ver el nombre de la estación.

Haga clic para ver las observaciones y los pronósticos meteorológicos.

Para cambiar el mapa : haga clic en los botones verdes con una cruz de color negro para hacer un zoom, en el botón verde con un guión para alejar o en las flechas verdes para mapas adyacentes.


METAR-TAF: